Time;durP1;ratioP1;P1;durP2;ratioP2;P2;SDS_P1;SDS_P2;PMS_P1;PMS_P2;Temp;Humidity;BMP_temperature;BMP_pressure;BME280_temperature;BME280_humidity;BME280_pressure;Samples;Min_cycle;Max_cycle;Signal;HPM_P1;HPM_P2
2023/09/11 00:01:02;;;;;;;11.70;6.50;;;;;;;13.57;75.50;99704.94;109565;1286;22503;-58
2023/09/11 00:03:42;;;;;;;10.30;4.80;;;;;;;13.55;75.58;99709.94;109345;1273;99674;-58
2023/09/11 00:06:11;;;;;;;8.40;4.60;;;;;;;13.52;75.60;99706.48;109613;1286;22295;-58
2023/09/11 00:08:39;;;;;;;9.40;4.50;;;;;;;13.48;75.51;99703.93;109607;1289;22313;-58
2023/09/11 00:11:09;;;;;;;9.10;5.60;;;;;;;13.42;75.66;99706.70;109540;1285;23170;-58
2023/09/11 00:13:37;;;;;;;12.30;6.00;;;;;;;13.42;76.02;99704.12;109226;1286;22330;-58
2023/09/11 00:16:06;;;;;;;15.10;7.30;;;;;;;13.43;76.12;99704.40;109321;1286;101503;-58
2023/09/11 00:18:35;;;;;;;10.40;6.20;;;;;;;13.39;76.07;99699.54;109563;1283;22174;-59
2023/09/11 00:21:03;;;;;;;14.40;7.10;;;;;;;13.35;76.18;99699.46;109484;1280;99777;-58
2023/09/11 00:23:32;;;;;;;15.50;6.20;;;;;;;13.33;76.32;99702.20;109483;1284;22223;-58
2023/09/11 00:26:01;;;;;;;7.30;5.10;;;;;;;13.32;76.48;99703.98;109371;1270;22941;-58
2023/09/11 00:28:29;;;;;;;6.00;4.10;;;;;;;13.33;76.59;99699.41;109252;1286;100356;-58
2023/09/11 00:31:01;;;;;;;6.90;4.20;;;;;;;13.29;76.26;99703.84;109565;1288;22319;-59
2023/09/11 00:33:30;;;;;;;6.00;4.10;;;;;;;13.27;76.70;99700.44;109511;1284;99924;-59
2023/09/11 00:35:58;;;;;;;7.00;3.20;;;;;;;13.27;76.65;99702.39;109452;1286;22184;-58
2023/09/11 00:38:27;;;;;;;6.90;3.30;;;;;;;13.26;76.79;99704.72;109582;1285;22169;-58
2023/09/11 00:40:56;;;;;;;5.30;4.30;;;;;;;13.24;76.87;99704.46;109341;1286;99306;-58
2023/09/11 00:43:24;;;;;;;6.60;3.90;;;;;;;13.22;76.82;99704.19;109553;1286;22349;-58
2023/09/11 00:45:55;;;;;;;4.50;3.60;;;;;;;13.18;76.86;99701.98;109362;1286;99330;-59
2023/09/11 00:48:24;;;;;;;5.90;4.20;;;;;;;13.12;76.77;99698.29;109447;1286;22158;-58
2023/09/11 00:50:54;;;;;;;12.10;4.70;;;;;;;13.11;76.88;99699.05;109456;1286;100228;-58
2023/09/11 00:53:23;;;;;;;5.10;3.70;;;;;;;13.07;76.70;99698.59;109565;1286;22283;-58
2023/09/11 00:55:52;;;;;;;4.80;3.20;;;;;;;13.02;76.73;99692.41;109588;1285;22155;-58
2023/09/11 00:58:22;;;;;;;5.90;4.30;;;;;;;12.98;77.07;99694.23;109425;1286;99981;-58
2023/09/11 01:00:52;;;;;;;6.90;4.20;;;;;;;12.95;77.31;99694.23;109429;1283;22353;-58
2023/09/11 01:03:21;;;;;;;6.90;4.20;;;;;;;12.93;77.44;99693.64;109470;1286;100155;-58
2023/09/11 01:05:50;;;;;;;8.80;4.40;;;;;;;12.92;77.60;99692.86;109426;1284;22280;-58
2023/09/11 01:08:19;;;;;;;6.10;4.10;;;;;;;12.90;77.62;99694.16;109543;1286;22165;-58
2023/09/11 01:10:49;;;;;;;5.50;4.40;;;;;;;12.90;77.80;99691.56;109470;1286;101140;-58
2023/09/11 01:13:17;;;;;;;5.60;3.90;;;;;;;12.89;77.94;99688.30;109442;1285;22267;-58
2023/09/11 01:16:10;;;;;;;5.30;4.70;;;;;;;12.87;77.90;99682.29;109472;1285;100188;-58
2023/09/11 01:18:51;;;;;;;9.30;5.30;;;;;;;12.88;78.07;99683.64;109395;1285;22302;-58
2023/09/11 01:21:32;;;;;;;8.90;6.00;;;;;;;12.86;78.29;99682.35;109517;1284;99543;-58
2023/09/11 01:24:11;;;;;;;7.70;4.60;;;;;;;12.86;78.27;99681.33;109548;1285;22196;-58
2023/09/11 01:27:33;;;;;;;9.40;5.00;;;;;;;12.84;78.35;99681.06;109549;1283;22982;-58
2023/09/11 01:30:03;;;;;;;4.60;3.60;;;;;;;12.85;78.50;99680.48;109544;1283;22490;-58
2023/09/11 01:32:33;;;;;;;5.60;4.30;;;;;;;12.83;78.40;99680.45;109417;1283;22362;-58
2023/09/11 01:35:02;;;;;;;6.30;3.30;;;;;;;12.85;78.72;99675.11;109342;1285;99371;-58
2023/09/11 01:37:31;;;;;;;5.30;3.70;;;;;;;12.87;78.85;99675.83;109526;1286;22178;-58
2023/09/11 01:40:00;;;;;;;5.90;4.70;;;;;;;12.88;78.91;99673.84;109458;1286;99330;-58
2023/09/11 01:42:40;;;;;;;5.60;4.40;;;;;;;12.87;78.94;99673.91;109547;1284;22208;-58
2023/09/11 01:45:14;;;;;;;7.90;3.40;;;;;;;12.85;78.94;99670.02;109475;1284;99884;-58
2023/09/11 01:47:45;;;;;;;6.80;3.70;;;;;;;12.82;78.87;99671.06;109520;1285;22170;-58
2023/09/11 01:50:15;;;;;;;4.20;3.50;;;;;;;12.80;78.96;99668.20;109422;1285;22171;-58
2023/09/11 01:52:49;;;;;;;11.00;4.90;;;;;;;12.79;78.86;99667.23;109439;1286;99345;-58
2023/09/11 01:55:17;;;;;;;4.90;3.40;;;;;;;12.76;78.92;99669.09;109599;1285;22187;-58
2023/09/11 01:57:46;;;;;;;9.50;4.60;;;;;;;12.74;79.00;99667.11;109302;1286;100814;-59
2023/09/11 02:00:15;;;;;;;8.00;4.80;;;;;;;12.71;78.91;99668.50;109508;1284;22151;-58
2023/09/11 02:02:43;;;;;;;5.10;3.20;;;;;;;12.71;79.02;99666.77;109403;1286;22142;-58
2023/09/11 02:05:13;;;;;;;6.80;4.90;;;;;;;12.70;79.20;99667.48;109529;1283;22173;-58
2023/09/11 02:07:41;;;;;;;6.10;3.90;;;;;;;12.70;79.31;99662.26;109538;1285;22201;-58
2023/09/11 02:10:10;;;;;;;5.10;3.80;;;;;;;12.69;79.34;99663.55;109340;1285;99914;-58
2023/09/11 02:12:38;;;;;;;6.30;3.50;;;;;;;12.67;79.22;99664.52;109524;1286;23214;-58
2023/09/11 02:15:07;;;;;;;5.50;3.40;;;;;;;12.65;79.24;99665.88;109431;1286;101565;-58
2023/09/11 02:17:36;;;;;;;5.90;3.70;;;;;;;12.62;79.21;99665.20;109521;1286;23272;-58
2023/09/11 02:20:06;;;;;;;6.80;3.70;;;;;;;12.58;79.18;99661.92;109558;1289;22349;-58
2023/09/11 02:22:34;;;;;;;5.00;3.70;;;;;;;12.57;79.39;99664.27;109409;1285;99338;-58
2023/09/11 02:25:03;;;;;;;4.90;4.10;;;;;;;12.57;79.57;99663.88;109400;1285;22051;-58
2023/09/11 02:27:32;;;;;;;8.70;3.10;;;;;;;12.57;79.48;99660.25;109273;1286;100970;-58
2023/09/11 02:30:00;;;;;;;5.90;3.20;;;;;;;12.53;79.47;99660.13;109571;1285;22168;-58
2023/09/11 02:32:31;;;;;;;5.30;3.60;;;;;;;12.51;79.61;99659.20;109384;1285;22177;-59
2023/09/11 02:34:59;;;;;;;5.50;3.00;;;;;;;12.49;79.72;99660.71;109545;1284;99432;-58
2023/09/11 02:37:28;;;;;;;4.20;3.20;;;;;;;12.47;79.60;99657.15;109554;1286;22232;-58
2023/09/11 02:39:57;;;;;;;5.90;3.70;;;;;;;12.44;79.69;99656.64;109451;1284;99414;-58
2023/09/11 02:42:25;;;;;;;4.40;3.30;;;;;;;12.42;79.79;99657.09;109399;1285;22314;-58
2023/09/11 02:44:54;;;;;;;3.70;3.30;;;;;;;12.41;79.92;99655.92;109453;1286;100839;-58
2023/09/11 02:47:23;;;;;;;5.50;3.50;;;;;;;12.39;79.87;99656.75;109493;1285;22185;-58
2023/09/11 02:49:51;;;;;;;6.20;4.20;;;;;;;12.38;80.01;99655.23;109354;1285;22149;-58
2023/09/11 02:52:20;;;;;;;5.10;3.80;;;;;;;12.38;80.11;99654.86;109320;1285;99641;-58
2023/09/11 02:54:49;;;;;;;5.90;3.30;;;;;;;12.35;80.04;99649.98;109498;1286;22274;-59
2023/09/11 02:57:17;;;;;;;4.90;3.20;;;;;;;12.30;80.03;99651.95;109448;1286;99532;-58
2023/09/11 02:59:46;;;;;;;5.30;3.10;;;;;;;12.26;79.98;99648.86;109556;1286;22299;-58
2023/09/11 03:02:15;;;;;;;4.20;3.10;;;;;;;12.24;80.00;99648.83;109549;1285;22304;-58
2023/09/11 03:04:44;;;;;;;7.10;4.10;;;;;;;12.22;80.08;99641.57;109254;1286;100322;-58
2023/09/11 03:07:17;;;;;;;7.30;4.60;;;;;;;12.21;80.28;99643.73;109269;1285;22299;-58
2023/09/11 03:09:45;;;;;;;3.90;3.00;;;;;;;12.21;80.43;99642.15;109283;1283;99504;-58
2023/09/11 03:12:14;;;;;;;8.30;3.70;;;;;;;12.21;80.40;99642.67;109470;1286;22150;-58
2023/09/11 03:14:43;;;;;;;6.30;3.30;;;;;;;12.18;80.48;99641.08;109504;1285;22307;-58
2023/09/11 03:17:14;;;;;;;5.00;3.50;;;;;;;12.18;80.66;99640.60;109254;1286;99106;-58
2023/09/11 03:19:42;;;;;;;4.80;3.20;;;;;;;12.19;80.72;99641.23;109372;1286;22298;-58
2023/09/11 03:22:11;;;;;;;5.70;4.00;;;;;;;12.18;80.80;99641.98;109502;1284;99343;-58
2023/09/11 03:24:39;;;;;;;5.30;3.40;;;;;;;12.17;80.77;99637.29;109391;1285;22178;-58
2023/09/11 03:27:08;;;;;;;5.40;3.80;;;;;;;12.18;80.82;99639.02;109178;1288;99485;-58
2023/09/11 03:29:36;;;;;;;12.70;4.70;;;;;;;12.18;80.87;99635.54;109294;1286;22248;-58
2023/09/11 03:32:06;;;;;;;5.00;4.10;;;;;;;12.18;81.09;99638.45;109409;1285;22326;-59
2023/09/11 03:34:34;;;;;;;8.30;4.10;;;;;;;12.22;81.27;99636.02;109481;1281;99959;-58
2023/09/11 03:37:03;;;;;;;9.60;4.30;;;;;;;12.24;81.35;99635.36;109528;1285;22317;-58
2023/09/11 03:39:32;;;;;;;4.80;3.80;;;;;;;12.25;81.33;99631.09;109121;1279;100093;-59
2023/09/11 03:42:01;;;;;;;4.90;3.50;;;;;;;12.24;81.20;99627.52;109357;1279;22141;-59
2023/09/11 03:44:30;;;;;;;7.20;3.40;;;;;;;12.22;81.23;99630.23;109333;1286;22251;-58
2023/09/11 03:46:58;;;;;;;5.20;4.20;;;;;;;12.21;81.34;99629.42;109461;1283;101485;-58
2023/09/11 03:49:27;;;;;;;5.20;3.50;;;;;;;12.21;81.45;99628.38;109561;1289;22441;-58
2023/09/11 03:51:57;;;;;;;4.70;3.40;;;;;;;12.20;81.52;99630.87;109275;1286;99971;-58
2023/09/11 03:54:25;;;;;;;25.80;5.40;;;;;;;12.18;81.52;99626.78;109592;1284;22106;-58
2023/09/11 03:56:54;;;;;;;8.30;4.60;;;;;;;12.17;81.45;99625.82;109446;1286;99217;-58
2023/09/11 03:59:22;;;;;;;6.20;3.30;;;;;;;12.15;81.43;99624.16;109413;1286;22373;-58
2023/09/11 04:01:51;;;;;;;5.80;4.20;;;;;;;12.13;81.38;99623.57;109454;1285;22167;-58
2023/09/11 04:04:19;;;;;;;8.40;4.20;;;;;;;12.11;81.42;99621.45;109283;1286;99945;-58
2023/09/11 04:06:48;;;;;;;5.50;3.20;;;;;;;12.10;81.63;99621.66;109494;1285;22299;-58
2023/09/11 04:09:17;;;;;;;8.00;3.70;;;;;;;12.12;81.67;99622.63;109473;1283;100556;-58
2023/09/11 04:11:45;;;;;;;6.00;3.90;;;;;;;12.13;81.68;99622.92;109500;1286;23236;-58
2023/09/11 04:14:14;;;;;;;6.60;3.70;;;;;;;12.12;81.75;99618.40;109460;1284;22325;-58
2023/09/11 04:16:42;;;;;;;9.20;3.70;;;;;;;12.13;81.96;99622.71;109159;1285;99842;-58
2023/09/11 04:19:12;;;;;;;5.70;3.90;;;;;;;12.12;82.01;99622.94;109326;1286;22960;-58
2023/09/11 04:21:41;;;;;;;8.00;4.20;;;;;;;12.12;82.00;99622.59;109295;1282;99540;-58
2023/09/11 04:24:12;;;;;;;7.10;4.10;;;;;;;12.13;82.15;99618.88;109355;1284;22282;-58
2023/09/11 04:26:43;;;;;;;8.30;4.10;;;;;;;12.16;82.26;99615.73;109451;1285;23119;-58
2023/09/11 04:29:11;;;;;;;11.30;4.30;;;;;;;12.19;82.04;99617.63;109403;1286;99713;-58
2023/09/11 04:31:40;;;;;;;8.10;3.90;;;;;;;12.21;81.96;99615.81;109420;1286;22193;-58
2023/09/11 04:34:08;;;;;;;7.40;4.90;;;;;;;12.21;81.88;99613.73;109424;1285;99375;-58
2023/09/11 04:36:37;;;;;;;7.70;4.20;;;;;;;12.23;82.00;99612.56;109372;1285;22266;-58
2023/09/11 04:39:05;;;;;;;8.40;4.30;;;;;;;12.26;82.15;99611.02;109293;1292;99458;-58
2023/09/11 04:41:34;;;;;;;8.80;4.00;;;;;;;12.29;82.32;99611.52;109382;1289;22161;-58
2023/09/11 04:44:03;;;;;;;11.80;4.10;;;;;;;12.35;82.44;99608.96;109489;1280;22198;-58
2023/09/11 04:46:32;;;;;;;8.00;5.00;;;;;;;12.41;82.58;99608.63;109447;1273;100061;-58
2023/09/11 04:49:00;;;;;;;11.70;4.60;;;;;;;12.48;82.55;99604.91;109346;1285;22228;-58
2023/09/11 04:51:29;;;;;;;7.50;4.60;;;;;;;12.56;82.66;99605.29;109404;1284;99916;-58
2023/09/11 04:53:58;;;;;;;7.90;4.90;;;;;;;12.65;82.80;99607.04;109503;1286;22189;-58
2023/09/11 04:56:27;;;;;;;9.90;4.10;;;;;;;12.76;82.94;99609.38;109294;1286;22334;-58
2023/09/11 04:58:56;;;;;;;7.50;5.00;;;;;;;12.88;83.14;99604.98;109294;1286;100925;-58
2023/09/11 05:01:24;;;;;;;7.00;3.50;;;;;;;13.02;83.21;99611.33;109410;1285;22322;-58
2023/09/11 05:03:53;;;;;;;15.40;3.90;;;;;;;13.14;83.05;99611.16;109278;1286;100908;-58
2023/09/11 05:06:22;;;;;;;9.10;3.50;;;;;;;13.27;83.11;99613.06;109494;1285;22398;-59
2023/09/11 05:08:51;;;;;;;5.80;3.90;;;;;;;13.38;83.19;99609.41;109284;1286;99863;-59
2023/09/11 05:11:39;;;;;;;7.50;3.90;;;;;;;13.50;83.11;99603.77;109422;1285;22073;-58
2023/09/11 05:14:07;;;;;;;5.40;3.80;;;;;;;13.63;83.26;99605.42;109584;1285;22253;-58
2023/09/11 05:16:36;;;;;;;6.10;4.10;;;;;;;13.76;83.28;99603.27;109476;1284;99448;-58
2023/09/11 05:19:05;;;;;;;7.80;4.20;;;;;;;13.89;83.31;99604.17;109520;1286;22201;-58
2023/09/11 05:21:33;;;;;;;10.50;4.20;;;;;;;14.03;83.41;99601.53;109467;1283;99642;-58
2023/09/11 05:24:05;;;;;;;11.30;4.90;;;;;;;14.19;83.49;99601.60;109645;1287;22294;-55
2023/09/11 05:26:38;;;;;;;10.60;5.40;;;;;;;14.35;83.57;99604.90;109621;1283;22149;-62
2023/09/11 05:29:07;;;;;;;7.80;4.00;;;;;;;14.52;83.83;99603.83;109321;1283;99914;-66
2023/09/11 05:31:37;;;;;;;8.60;3.80;;;;;;;14.71;83.92;99600.48;109587;1283;22156;-63
2023/09/11 05:34:06;;;;;;;10.60;4.60;;;;;;;14.92;83.76;99598.52;109540;1284;99917;-67
2023/09/11 05:36:36;;;;;;;9.90;4.00;;;;;;;15.12;83.84;99597.44;109403;1278;22162;-58
2023/09/11 05:39:05;;;;;;;13.60;3.70;;;;;;;15.31;83.81;99601.71;109269;1283;100603;-58
2023/09/11 05:41:35;;;;;;;7.70;4.80;;;;;;;15.49;83.77;99598.50;109375;1283;22169;-59
2023/09/11 05:44:06;;;;;;;8.40;3.80;;;;;;;15.68;83.75;99596.14;109550;1286;22803;-59
2023/09/11 05:46:35;;;;;;;13.70;4.80;;;;;;;15.85;83.67;99595.83;109530;1286;99341;-59
2023/09/11 05:49:03;;;;;;;11.40;4.30;;;;;;;16.03;83.68;99592.15;109575;1283;22532;-60
2023/09/11 05:51:32;;;;;;;11.00;4.80;;;;;;;16.22;83.66;99594.27;109289;1284;100292;-59
2023/09/11 05:54:01;;;;;;;15.70;4.70;;;;;;;16.39;83.58;99597.41;109387;1282;22193;-58
2023/09/11 05:56:36;;;;;;;12.10;4.80;;;;;;;16.58;83.57;99601.60;109322;1277;23074;-58
2023/09/11 05:59:05;;;;;;;18.20;3.90;;;;;;;16.78;83.42;99599.13;109494;1283;100152;-59
2023/09/11 06:01:33;;;;;;;17.50;4.70;;;;;;;16.95;83.55;99601.89;109604;1283;22257;-57
2023/09/11 06:04:02;;;;;;;13.70;4.80;;;;;;;17.15;83.58;99599.96;109487;1286;100089;-57
2023/09/11 06:06:34;;;;;;;14.50;5.20;;;;;;;17.37;83.56;99600.09;109357;1283;237347;-57
2023/09/11 06:09:08;;;;;;;11.70;5.50;;;;;;;17.60;83.54;99596.83;109430;1283;100170;-57
2023/09/11 06:11:36;;;;;;;13.00;5.20;;;;;;;17.85;83.50;99600.37;109335;1286;22102;-58
2023/09/11 06:14:09;;;;;;;13.00;4.40;;;;;;;18.06;83.25;99601.68;109519;1282;22311;-61
2023/09/11 06:16:38;;;;;;;10.40;4.30;;;;;;;18.28;83.15;99602.41;109478;1283;101414;-60
2023/09/11 06:19:06;;;;;;;7.70;4.00;;;;;;;18.49;83.04;99599.64;109582;1286;22987;-59
2023/09/11 06:21:35;;;;;;;17.40;4.40;;;;;;;18.73;83.26;99601.04;109464;1273;99478;-57
2023/09/11 06:24:07;;;;;;;4.50;3.50;;;;;;;18.97;83.04;99597.05;109380;1284;22334;-56
2023/09/11 06:26:35;;;;;;;6.50;3.70;;;;;;;19.19;82.83;99601.21;109559;1284;22315;-57
2023/09/11 06:29:04;;;;;;;3.90;2.90;;;;;;;19.38;82.62;99598.20;109447;1283;99336;-58
2023/09/11 06:31:33;;;;;;;5.00;3.50;;;;;;;19.57;82.33;99595.91;109518;1286;22299;-59
2023/09/11 06:34:06;;;;;;;5.80;3.70;;;;;;;19.73;82.15;99599.25;109411;1283;99441;-55
2023/09/11 06:36:46;;;;;;;6.90;4.00;;;;;;;19.96;82.12;99597.25;109560;1280;22171;-57
2023/09/11 06:39:21;;;;;;;9.40;3.50;;;;;;;20.21;82.10;99593.38;109264;1283;100018;-57
2023/09/11 06:41:52;;;;;;;7.80;3.80;;;;;;;20.46;81.76;99594.97;109476;1283;23058;-60
2023/09/11 06:44:25;;;;;;;5.00;2.90;;;;;;;20.67;81.51;99594.57;109362;1283;22205;-58
2023/09/11 06:46:55;;;;;;;6.40;3.10;;;;;;;20.92;81.33;99592.65;109156;1283;101799;-56
2023/09/11 06:49:32;;;;;;;5.20;3.10;;;;;;;21.19;81.18;99594.60;109228;1283;22405;-59
2023/09/11 06:52:03;;;;;;;6.30;4.30;;;;;;;21.46;80.82;99593.86;109472;1283;100910;-58
2023/09/11 06:54:37;;;;;;;5.60;2.90;;;;;;;21.75;80.85;99591.22;108996;1286;22321;-58
2023/09/11 06:57:13;;;;;;;6.00;3.00;;;;;;;22.07;80.37;99594.19;109234;1283;99564;-53
2023/09/11 06:59:44;;;;;;;4.50;3.20;;;;;;;22.35;80.16;99593.38;109331;1284;22149;-58
2023/09/11 07:02:21;;;;;;;6.00;3.50;;;;;;;22.60;79.87;99597.98;109399;1286;22083;-56
2023/09/11 07:04:59;;;;;;;5.90;3.40;;;;;;;22.80;79.20;99595.73;109481;1277;99518;-55
2023/09/11 07:07:31;;;;;;;7.80;3.20;;;;;;;23.07;79.32;99593.52;109333;1284;22313;-56
2023/09/11 07:10:07;;;;;;;4.10;3.50;;;;;;;23.64;79.83;99592.79;109302;1276;99377;-56
2023/09/11 07:12:50;;;;;;;7.20;3.70;;;;;;;24.13;79.01;99590.21;109204;1284;22319;-57
2023/09/11 07:15:20;;;;;;;6.20;3.20;;;;;;;24.44;78.23;99585.45;109149;1283;99992;-57
2023/09/11 07:17:51;;;;;;;7.70;3.40;;;;;;;24.75;77.88;99591.19;109514;1284;22311;-56
2023/09/11 07:20:21;;;;;;;6.10;4.00;;;;;;;25.05;77.21;99590.20;109172;1288;22362;-57
2023/09/11 07:22:53;;;;;;;5.90;3.20;;;;;;;25.29;77.03;99588.91;109354;1284;99891;-56
2023/09/11 07:25:23;;;;;;;5.50;3.10;;;;;;;25.65;76.54;99591.61;109258;1285;24702;-56
2023/09/11 07:27:55;;;;;;;8.00;4.80;;;;;;;25.87;75.63;99590.44;109170;1284;99464;-56
2023/09/11 07:30:24;;;;;;;7.50;4.00;;;;;;;25.99;75.22;99589.92;109407;1285;24634;-56
2023/09/11 07:32:54;;;;;;;4.80;3.20;;;;;;;26.31;74.88;99588.98;109056;1284;99565;-56
2023/09/11 07:35:23;;;;;;;5.10;3.60;;;;;;;26.68;74.47;99589.66;109538;1285;22187;-57
2023/09/11 07:37:53;;;;;;;18.00;4.70;;;;;;;27.23;74.13;99591.89;109317;1285;22077;-56
2023/09/11 07:40:27;;;;;;;10.80;3.90;;;;;;;27.88;73.68;99587.71;109454;1284;99629;-57
2023/09/11 07:42:57;;;;;;;15.60;4.40;;;;;;;28.39;72.89;99590.20;109202;1286;22320;-57
2023/09/11 07:45:27;;;;;;;17.20;4.20;;;;;;;28.85;72.43;99591.61;109212;1280;99713;-57
2023/09/11 07:47:58;;;;;;;7.80;3.20;;;;;;;29.60;72.30;99594.95;109475;1285;22227;-57
2023/09/11 07:50:33;;;;;;;4.00;2.40;;;;;;;30.33;70.51;99597.02;109546;1284;22287;-57
2023/09/11 07:53:07;;;;;;;6.60;2.90;;;;;;;30.85;69.90;99594.73;109396;1286;99957;-57
2023/09/11 07:55:54;;;;;;;14.10;3.20;;;;;;;31.55;69.47;99587.69;109258;1286;22300;-57
2023/09/11 07:58:39;;;;;;;4.70;2.30;;;;;;;32.49;68.58;99590.96;109299;1276;22226;-57
2023/09/11 08:01:09;;;;;;;3.50;2.80;;;;;;;33.29;67.78;99589.44;109334;1274;22145;-57
2023/09/11 08:03:38;;;;;;;4.20;2.50;;;;;;;34.53;67.80;99587.61;109451;1286;100071;-56
2023/09/11 08:06:08;;;;;;;5.40;2.40;;;;;;;35.98;66.57;99583.62;109566;1284;22941;-57
2023/09/11 08:08:37;;;;;;;6.80;2.70;;;;;;;37.22;64.56;99582.41;109536;1281;22373;-57
2023/09/11 08:11:15;;;;;;;8.70;2.70;;;;;;;38.36;63.66;99585.96;109232;1286;101986;-56
2023/09/11 08:13:46;;;;;;;2.50;2.10;;;;;;;40.15;62.38;99583.02;109525;1277;22404;-57
2023/09/11 08:16:15;;;;;;;3.60;2.30;;;;;;;41.56;59.94;99581.96;109428;1289;100007;-56
2023/09/11 08:18:43;;;;;;;4.20;2.40;;;;;;;42.35;56.82;99581.52;109316;1289;23228;-57
2023/09/11 08:21:12;;;;;;;5.90;2.10;;;;;;;42.31;54.46;99579.52;109261;1284;100015;-57
2023/09/11 08:23:42;;;;;;;4.60;2.20;;;;;;;42.99;53.23;99586.67;109374;1286;22210;-57
2023/09/11 08:26:11;;;;;;;4.30;2.30;;;;;;;44.08;51.64;99578.48;109370;1286;22518;-58
2023/09/11 08:28:40;;;;;;;2.40;1.50;;;;;;;45.00;48.98;99577.95;109235;1286;103044;-58
2023/09/11 08:31:08;;;;;;;1.90;1.60;;;;;;;45.26;46.64;99580.99;109334;1285;22309;-58
2023/09/11 08:33:37;;;;;;;3.40;1.90;;;;;;;45.36;45.21;99577.77;109269;1286;100113;-58
2023/09/11 08:36:22;;;;;;;3.40;1.50;;;;;;;45.71;43.73;99579.75;109368;1283;22369;-57
2023/09/11 08:38:51;;;;;;;1.90;1.50;;;;;;;46.05;41.76;99579.36;109341;1285;23520;-57
2023/09/11 08:41:23;;;;;;;1.50;1.40;;;;;;;46.47;40.51;99575.52;109436;1285;98015;-58
2023/09/11 08:43:52;;;;;;;2.90;1.60;;;;;;;47.50;39.32;99578.46;109512;1288;22158;-58
2023/09/11 08:46:22;;;;;;;2.20;1.30;;;;;;;48.68;37.80;99578.80;109513;1284;100013;-58
2023/09/11 08:49:04;;;;;;;1.60;1.50;;;;;;;48.54;35.08;99576.67;109576;1285;22499;-58
2023/09/11 08:51:51;;;;;;;3.50;1.90;;;;;;;48.61;34.42;99578.98;109280;1286;99961;-56
2023/09/11 08:54:49;;;;;;;1.60;1.40;;;;;;;49.23;32.85;99579.15;109573;1285;22162;-56
2023/09/11 08:57:21;;;;;;;1.50;1.40;;;;;;;49.41;31.71;99574.84;109390;1283;100150;-59
2023/09/11 08:59:53;;;;;;;2.80;1.60;;;;;;;50.22;30.81;99573.50;109594;1284;22193;-59
2023/09/11 09:02:27;;;;;;;2.80;1.20;;;;;;;51.16;29.75;99573.83;109512;1286;22211;-60
2023/09/11 09:04:57;;;;;;;1.70;1.60;;;;;;;51.80;28.07;99574.65;109219;1283;100293;-61
2023/09/11 09:07:27;;;;;;;1.70;1.60;;;;;;;51.41;26.48;99573.51;109485;1285;22164;-56
2023/09/11 09:10:00;;;;;;;1.70;1.60;;;;;;;51.02;25.92;99574.48;109260;1286;99844;-56
2023/09/11 09:12:29;;;;;;;2.30;2.10;;;;;;;50.58;25.24;99573.36;109321;1282;22940;-58
2023/09/11 09:14:58;;;;;;;1.80;1.60;;;;;;;51.38;25.27;99565.64;109459;1289;99642;-58
2023/09/11 09:17:27;;;;;;;1.80;1.70;;;;;;;52.90;24.50;99569.40;109439;1285;22964;-59
2023/09/11 09:19:57;;;;;;;1.90;1.70;;;;;;;53.28;22.87;99566.92;109533;1286;22173;-55
2023/09/11 09:22:26;;;;;;;2.50;2.30;;;;;;;51.81;22.06;99569.02;109462;1286;105205;-54
2023/09/11 09:24:56;;;;;;;2.20;2.00;;;;;;;51.72;22.32;99566.79;109399;1275;22139;-58
2023/09/11 09:27:35;;;;;;;2.70;2.40;;;;;;;52.78;21.74;99567.52;109216;1283;100323;-58
2023/09/11 09:30:18;;;;;;;2.70;2.50;;;;;;;53.37;21.20;99563.57;109388;1283;22298;-59
2023/09/11 09:32:48;;;;;;;2.80;2.50;;;;;;;53.84;20.92;99559.91;109545;1285;22343;-59
2023/09/11 09:35:32;;;;;;;2.50;2.30;;;;;;;54.37;20.59;99555.45;109209;1283;99179;-59
2023/09/11 09:38:02;;;;;;;2.30;2.20;;;;;;;54.67;20.00;99551.61;109557;1283;22146;-59
2023/09/11 09:40:30;;;;;;;3.30;3.00;;;;;;;55.14;19.56;99549.84;109309;1286;102790;-58
2023/09/11 09:43:00;;;;;;;3.20;3.00;;;;;;;55.34;18.72;99548.21;109568;1283;22387;-59
2023/09/11 09:45:33;;;;;;;3.90;3.50;;;;;;;54.51;18.27;99540.47;109533;1283;99563;-59
2023/09/11 09:48:32;;;;;;;3.60;3.40;;;;;;;54.54;18.44;99539.72;109379;1283;22197;-59
2023/09/11 09:51:02;;;;;;;4.10;3.80;;;;;;;55.14;18.00;99541.29;109238;1284;99972;-56
2023/09/11 09:53:33;;;;;;;4.80;4.40;;;;;;;55.84;17.91;99539.05;109417;1286;22264;-59
2023/09/11 09:56:04;;;;;;;8.20;5.20;;;;;;;56.44;17.61;99536.27;109373;1287;22360;-59
2023/09/11 09:58:38;;;;;;;6.30;5.80;;;;;;;57.60;17.41;99532.86;109505;1287;99504;-58
2023/09/11 10:01:16;;;;;;;7.50;7.00;;;;;;;58.54;17.01;99531.14;109613;1283;22098;-58
2023/09/11 10:03:51;;;;;;;7.50;7.00;;;;;;;58.46;15.91;99522.95;109480;1286;99447;-60
2023/09/11 10:06:28;;;;;;;5.20;4.90;;;;;;;55.31;15.44;99517.63;109589;1285;22312;-59
2023/09/11 10:09:10;;;;;;;5.60;5.20;;;;;;;54.53;15.84;99513.98;109285;1284;99492;-58
2023/09/11 10:11:41;;;;;;;6.00;5.60;;;;;;;55.02;15.75;99514.73;109272;1283;22247;-59
2023/09/11 10:15:03;;;;;;;5.60;5.20;;;;;;;55.42;15.90;99515.55;109349;1283;23598;-58
2023/09/11 10:18:19;;;;;;;4.40;4.00;;;;;;;52.72;15.76;99513.39;108833;1289;22294;-56
2023/09/11 10:20:50;;;;;;;3.40;2.40;;;;;;;50.59;15.69;99508.39;108861;1289;22308;-60
2023/09/11 10:23:20;;;;;;;2.90;2.10;;;;;;;48.42;16.29;99508.14;108755;1292;99139;-58
2023/09/11 10:25:56;;;;;;;2.80;2.30;;;;;;;48.21;17.05;99509.81;108867;1284;22182;-57
2023/09/11 10:28:33;;;;;;;2.30;2.10;;;;;;;50.50;16.90;99507.89;108650;1288;98458;-58
2023/09/11 10:31:12;;;;;;;2.60;2.40;;;;;;;51.50;16.54;99508.95;108830;1289;22320;-58
2023/09/11 10:33:46;;;;;;;2.40;2.30;;;;;;;52.24;16.93;99509.55;108759;1292;99680;-57
2023/09/11 10:36:17;;;;;;;2.20;2.00;;;;;;;52.00;15.77;99506.92;108835;1289;22231;-59
2023/09/11 10:38:47;;;;;;;6.50;2.40;;;;;;;50.78;16.52;99502.98;108864;1292;22175;-59
2023/09/11 10:41:16;;;;;;;3.40;2.80;;;;;;;52.32;16.68;99502.13;108708;1289;100437;-55
2023/09/11 10:43:47;;;;;;;3.70;3.40;;;;;;;52.69;15.95;99499.59;109414;1283;22288;-53
2023/09/11 10:46:19;;;;;;;5.00;3.50;;;;;;;52.12;16.13;99498.48;109266;1284;99991;-58
2023/09/11 10:48:51;;;;;;;5.20;4.80;;;;;;;53.36;16.14;99496.98;109466;1285;22301;-55
2023/09/11 10:51:20;;;;;;;5.10;4.10;;;;;;;53.75;15.41;99493.07;109479;1283;100426;-56
2023/09/11 10:53:50;;;;;;;5.70;3.50;;;;;;;51.36;15.56;99490.91;109392;1286;22230;-56
2023/09/11 10:56:19;;;;;;;4.20;3.90;;;;;;;51.28;15.76;99488.98;109575;1285;22305;-60
2023/09/11 10:58:52;;;;;;;4.50;4.20;;;;;;;51.61;15.71;99482.89;109447;1286;99986;-59
2023/09/11 11:01:21;;;;;;;;;;;;;;;52.38;15.33;99487.91;109558;1286;22434;-60
2023/09/11 11:03:52;;;;;;;5.30;4.80;;;;;;;50.47;14.91;99471.85;109545;1282;85851;-60
2023/09/11 11:06:23;;;;;;;5.80;5.30;;;;;;;51.69;15.76;99482.08;109639;1286;22261;-59
2023/09/11 11:08:52;;;;;;;7.00;6.40;;;;;;;53.91;16.07;99481.13;109408;1286;22171;-59
2023/09/11 11:11:27;;;;;;;6.70;6.30;;;;;;;55.69;15.32;99486.15;109299;1286;99392;-58
2023/09/11 11:14:21;;;;;;;4.90;4.60;;;;;;;54.55;15.08;99481.65;109548;1284;22131;-59
2023/09/11 11:16:54;;;;;;;3.70;3.50;;;;;;;50.78;13.88;99473.60;109456;1285;99963;-59
2023/09/11 11:19:31;;;;;;;5.30;3.90;;;;;;;47.97;14.81;99470.00;109586;1283;22668;-60
2023/09/11 11:22:02;;;;;;;3.90;3.60;;;;;;;47.25;15.34;99468.70;109503;1286;99408;-60
2023/09/11 11:24:34;;;;;;;4.50;3.60;;;;;;;47.30;16.12;99476.29;109579;1283;22283;-60
2023/09/11 11:27:08;;;;;;;3.50;3.20;;;;;;;49.07;16.51;99471.36;109287;1286;98533;-60
2023/09/11 11:29:37;;;;;;;4.40;4.10;;;;;;;51.11;16.13;99475.14;109549;1285;22324;-59
2023/09/11 11:32:10;;;;;;;4.50;4.10;;;;;;;52.20;16.35;99479.04;109275;1283;22322;-60
2023/09/11 11:34:41;;;;;;;7.90;5.20;;;;;;;53.54;15.95;99473.29;109470;1282;99567;-61
2023/09/11 11:37:13;;;;;;;6.70;6.30;;;;;;;54.63;15.81;99480.04;109325;1286;22354;-60
2023/09/11 11:39:43;;;;;;;;;;;;;;;54.99;15.19;99480.63;109036;1289;100332;-59
2023/09/11 11:42:13;;;;;;;6.90;6.40;;;;;;;53.57;15.10;99476.57;109544;1283;22197;-58
2023/09/11 11:44:42;;;;;;;6.30;5.90;;;;;;;53.67;15.20;99477.80;109590;1286;23051;-60